Time;durP1;ratioP1;P1;durP2;ratioP2;P2;SDS_P1;SDS_P2;PMS_P1;PMS_P2;Temp;Humidity;BMP_temperature;BMP_pressure;BME280_temperature;BME280_humidity;BME280_pressure;Samples;Min_cycle;Max_cycle;Signal;HPM_P1;HPM_P2
2022/05/24 00:03:46;;;;;;;12.60;11.27;;;;;;;15.81;59.00;99117.06;10429941;28;20527;-84
2022/05/24 00:08:49;;;;;;;14.23;11.10;;;;;;;16.12;57.97;99099.31;10429184;28;20238;-83
2022/05/24 00:13:51;;;;;;;15.30;12.90;;;;;;;15.92;58.33;99100.06;10445837;28;20242;-83
2022/05/24 00:18:54;;;;;;;17.50;13.27;;;;;;;16.12;58.68;99113.53;10428974;28;20278;-83
2022/05/24 00:23:57;;;;;;;17.90;14.93;;;;;;;15.71;58.82;99118.69;10444933;28;20492;-84
2022/05/24 00:28:59;;;;;;;17.43;15.00;;;;;;;15.70;58.44;99104.88;10412572;28;20192;-83
2022/05/24 00:34:01;;;;;;;19.40;15.73;;;;;;;16.38;57.66;99111.56;10428324;28;20233;-84
2022/05/24 00:39:03;;;;;;;17.17;15.43;;;;;;;15.31;59.24;99114.00;10462973;28;20207;-92
2022/05/24 00:44:10;;;;;;;22.47;17.70;;;;;;;16.11;58.52;99114.72;10431574;28;20191;-94
2022/05/24 00:49:14;;;;;;;20.67;17.55;;;;;;;16.18;57.31;99111.06;10447491;28;20512;-92
2022/05/24 00:54:17;;;;;;;19.20;16.13;;;;;;;15.36;59.32;99112.81;10430213;28;20635;-90
2022/05/24 00:59:29;;;;;;;20.85;17.30;;;;;;;15.51;59.48;99103.97;10446879;28;20231;-91
2022/05/24 01:04:32;;;;;;;20.83;16.85;;;;;;;15.59;59.49;99095.50;10438282;28;20192;-90
2022/05/24 01:09:44;;;;;;;17.37;15.43;;;;;;;15.48;58.98;99089.75;10429633;28;20580;-91
2022/05/24 01:14:47;;;;;;;17.27;15.43;;;;;;;15.69;58.30;99083.34;10429497;28;20224;-91
2022/05/24 01:19:50;;;;;;;20.33;14.40;;;;;;;15.88;58.10;99076.53;10446418;28;20670;-91
2022/05/24 01:25:08;;;;;;;20.03;15.17;;;;;;;16.19;56.72;99082.25;10445966;28;20188;-91
2022/05/24 01:30:11;;;;;;;19.40;14.03;;;;;;;16.01;57.79;99080.59;10445348;28;20184;-91
2022/05/24 01:40:36;;;;;;;14.00;12.10;;;;;;;15.83;58.54;99077.72;10447687;28;20266;-90
2022/05/24 01:45:44;;;;;;;18.17;13.37;;;;;;;16.29;57.41;99074.16;10444728;28;20501;-92
2022/05/24 01:50:47;;;;;;;15.70;12.70;;;;;;;15.34;60.10;99084.00;10427810;28;20692;-91
2022/05/24 01:55:53;;;;;;;16.60;14.27;;;;;;;15.84;58.74;99083.00;10427860;28;20293;-91
2022/05/24 02:01:02;;;;;;;17.77;14.50;;;;;;;15.73;59.43;99087.84;10411719;28;20285;-92
2022/05/24 02:06:25;;;;;;;17.07;14.67;;;;;;;15.44;59.63;99074.72;10458433;28;20180;-91
2022/05/24 02:11:29;;;;;;;18.75;14.43;;;;;;;15.84;58.93;99079.34;10425636;28;20188;-81
2022/05/24 02:16:33;;;;;;;17.33;14.97;;;;;;;15.16;61.19;99098.09;10442387;28;20192;-82
2022/05/24 02:21:38;;;;;;;18.37;14.97;;;;;;;15.38;60.94;99082.78;10425294;28;20676;-82
2022/05/24 02:26:40;;;;;;;18.67;15.23;;;;;;;14.86;62.47;99086.13;10441637;28;20214;-85
2022/05/24 02:31:42;;;;;;;17.30;14.57;;;;;;;15.17;61.07;99080.66;10424527;28;20200;-82
2022/05/24 02:36:44;;;;;;;18.63;15.67;;;;;;;15.25;60.28;99080.69;10441361;28;20192;-82
2022/05/24 02:41:47;;;;;;;19.43;15.37;;;;;;;15.16;60.70;99086.75;10441721;28;20180;-85
2022/05/24 02:46:49;;;;;;;20.50;16.83;;;;;;;16.01;58.36;99078.59;10441120;28;20250;-82
2022/05/24 02:51:51;;;;;;;19.57;16.20;;;;;;;15.63;58.70;99085.75;10442001;28;20212;-84
2022/05/24 02:56:53;;;;;;;20.75;17.50;;;;;;;15.44;59.05;99091.75;10442153;28;20697;-90
2022/05/24 03:01:55;;;;;;;17.77;15.87;;;;;;;15.62;58.79;99077.66;10427332;28;20210;-90
2022/05/24 03:17:42;;;;;;;17.27;13.67;;;;;;;14.92;59.43;99087.41;10402684;28;20209;-85
2022/05/24 03:22:44;;;;;;;20.10;13.60;;;;;;;15.59;58.37;99072.78;10406909;28;20242;-81
2022/05/24 03:27:46;;;;;;;15.43;13.10;;;;;;;15.73;56.45;99072.81;10424367;28;20185;-82
2022/05/24 03:32:49;;;;;;;16.37;12.40;;;;;;;15.37;57.56;99084.00;10405793;28;20590;-86
2022/05/24 03:37:51;;;;;;;14.07;11.30;;;;;;;15.11;58.42;99079.41;10407651;28;20628;-87
2022/05/24 03:42:54;;;;;;;18.20;12.40;;;;;;;15.86;56.60;99068.41;10389640;28;20208;-83
2022/05/24 03:47:57;;;;;;;15.33;12.70;;;;;;;15.70;56.86;99082.13;10405884;28;20197;-83
2022/05/24 03:52:59;;;;;;;13.27;11.00;;;;;;;14.75;58.61;99084.03;10407400;28;20212;-93
2022/05/24 03:58:02;;;;;;;13.03;11.03;;;;;;;14.98;58.20;99100.81;10457540;28;20242;-87
2022/05/24 04:03:05;;;;;;;14.30;9.73;;;;;;;14.78;58.50;99102.31;10443590;28;20312;-91
2022/05/24 04:08:08;;;;;;;15.20;10.07;;;;;;;14.86;57.57;99120.19;10467245;28;20207;-91
2022/05/24 04:13:10;;;;;;;11.73;8.97;;;;;;;14.90;57.29;99121.03;10432286;28;20192;-91
2022/05/24 04:18:12;;;;;;;9.70;7.03;;;;;;;14.00;59.00;99130.72;10448365;28;20535;-87
2022/05/24 04:23:19;;;;;;;8.03;6.07;;;;;;;14.28;57.14;99124.53;10430817;28;20246;-86
2022/05/24 04:28:23;;;;;;;7.30;5.50;;;;;;;15.26;54.33;99130.56;10447446;28;20184;-90
2022/05/24 04:33:25;;;;;;;8.43;4.80;;;;;;;14.94;54.84;99130.38;10464544;28;20234;-91
2022/05/24 04:38:28;;;;;;;5.40;3.40;;;;;;;14.88;52.85;99137.63;10463134;28;20200;-82
2022/05/24 04:43:31;;;;;;;10.07;4.07;;;;;;;14.95;52.50;99146.22;10445861;28;20187;-89
2022/05/24 04:48:33;;;;;;;8.43;4.53;;;;;;;14.62;54.30;99153.59;10394861;28;20219;-90
2022/05/24 04:53:35;;;;;;;10.10;4.87;;;;;;;14.21;55.55;99151.97;10396941;28;20690;-91
2022/05/24 04:58:38;;;;;;;7.27;4.37;;;;;;;13.99;55.62;99170.78;10403945;28;20200;-83
2022/05/24 05:03:43;;;;;;;5.37;4.10;;;;;;;14.65;53.53;99167.00;10403737;28;20250;-90
2022/05/24 05:08:45;;;;;;;5.33;3.20;;;;;;;14.09;55.00;99159.56;10402579;28;20536;-89
2022/05/24 05:13:47;;;;;;;5.23;3.83;;;;;;;14.76;53.39;99156.59;10402539;28;20239;-82
2022/05/24 05:18:57;;;;;;;8.60;3.67;;;;;;;14.13;55.17;99153.94;10385674;28;20220;-86
2022/05/24 05:24:04;;;;;;;3.90;2.80;;;;;;;14.00;54.97;99161.91;10385754;28;20544;-83
2022/05/24 05:29:06;;;;;;;6.17;2.63;;;;;;;13.88;55.14;99195.31;10401592;28;20239;-82
2022/05/24 05:34:09;;;;;;;8.63;2.93;;;;;;;13.99;54.00;99211.25;10384147;28;20193;-83
2022/05/24 05:39:11;;;;;;;6.53;2.83;;;;;;;13.86;55.82;99241.00;10418166;28;20231;-84
2022/05/24 05:44:13;;;;;;;6.07;2.87;;;;;;;13.73;56.38;99257.41;10401294;28;20601;-83
2022/05/24 05:49:15;;;;;;;6.33;2.97;;;;;;;13.91;55.85;99256.84;10401278;28;20262;-83
2022/05/24 05:54:17;;;;;;;6.60;3.20;;;;;;;13.76;57.44;99261.50;10390173;28;20228;-83
2022/05/24 05:59:20;;;;;;;4.57;3.30;;;;;;;13.17;58.50;99274.31;10441634;28;20238;-83
2022/05/24 06:04:22;;;;;;;8.63;3.67;;;;;;;12.92;60.49;99276.72;10442062;28;20192;-84
2022/05/24 06:09:24;;;;;;;7.23;2.97;;;;;;;13.25;59.85;99276.09;10425128;28;20195;-87
2022/05/24 06:14:32;;;;;;;7.77;3.00;;;;;;;13.28;60.95;99286.69;10442819;28;20215;-85
2022/05/24 06:20:00;;;;;;;8.37;2.63;;;;;;;12.84;60.75;99291.13;10445085;28;20208;-84
2022/05/24 06:25:03;;;;;;;7.17;2.80;;;;;;;12.92;60.48;99298.53;10424564;28;20196;-84
2022/05/24 06:30:06;;;;;;;7.70;2.93;;;;;;;13.01;61.03;99310.44;10425329;28;20242;-83
2022/05/24 06:35:08;;;;;;;6.07;2.80;;;;;;;12.83;61.42;99318.56;10425232;28;20192;-85
2022/05/24 06:40:13;;;;;;;7.67;3.00;;;;;;;12.89;61.36;99322.75;10446687;28;20220;-84
2022/05/24 06:45:15;;;;;;;10.63;2.87;;;;;;;13.28;59.96;99337.63;10432740;28;20470;-85
2022/05/24 06:50:18;;;;;;;8.33;2.97;;;;;;;12.85;62.43;99360.63;10450151;28;20184;-87
2022/05/24 06:55:22;;;;;;;5.17;2.40;;;;;;;12.19;62.66;99384.25;10433977;28;20224;-84
2022/05/24 07:05:46;;;;;;;4.67;2.07;;;;;;;12.65;61.06;99383.25;10451307;28;20492;-83
2022/05/24 07:10:52;;;;;;;4.67;1.97;;;;;;;12.86;59.68;99376.41;10432142;28;20214;-84
2022/05/24 07:15:54;;;;;;;5.13;1.80;;;;;;;13.24;59.32;99365.03;10448288;28;20184;-86
2022/05/24 07:20:56;;;;;;;5.80;2.40;;;;;;;13.70;59.41;99360.13;10448029;28;20469;-84
2022/05/24 07:26:13;;;;;;;5.33;1.50;;;;;;;13.38;57.57;99345.47;10431107;28;20188;-84
2022/05/24 07:31:37;;;;;;;4.47;1.30;;;;;;;13.36;57.73;99362.00;10442719;28;20488;-84
2022/05/24 07:36:39;;;;;;;3.03;1.30;;;;;;;13.59;57.70;99367.63;10430744;28;20330;-83
2022/05/24 07:47:02;;;;;;;1.37;1.10;;;;;;;13.27;56.88;99395.41;10449776;28;20188;-85
2022/05/24 07:52:05;;;;;;;4.67;1.27;;;;;;;13.99;56.23;99401.06;10431624;28;20204;-91
2022/05/24 07:57:08;;;;;;;4.80;1.50;;;;;;;12.89;58.55;99416.06;10447774;28;20223;-88
2022/05/24 08:02:11;;;;;;;2.63;0.90;;;;;;;12.95;58.26;99425.06;10447208;28;20216;-88
2022/05/24 08:07:13;;;;;;;1.63;1.13;;;;;;;13.34;57.92;99426.66;10447193;28;20217;-88
2022/05/24 08:12:15;;;;;;;4.30;0.97;;;;;;;14.07;53.83;99414.13;10446900;28;20218;-90
2022/05/24 08:17:17;;;;;;;2.40;1.13;;;;;;;13.80;54.01;99423.81;10464310;28;20242;-91
2022/05/24 08:22:20;;;;;;;3.27;0.90;;;;;;;13.44;55.96;99430.03;10446084;28;20219;-85
2022/05/24 08:27:22;;;;;;;1.63;1.00;;;;;;;14.57;55.54;99431.88;10446524;28;20238;-86
2022/05/24 08:32:24;;;;;;;4.83;1.40;;;;;;;14.37;52.10;99428.34;10463173;28;20241;-88
2022/05/24 08:37:26;;;;;;;5.33;1.17;;;;;;;15.66;50.58;99430.69;10447067;28;20203;-86
2022/05/24 08:42:47;;;;;;;4.00;1.30;;;;;;;14.81;51.54;99427.75;10451126;28;20346;-90
2022/05/24 08:53:30;;;;;;;5.83;1.30;;;;;;;15.24;51.79;99434.72;10456239;28;20226;-90
2022/05/24 08:58:36;;;;;;;5.50;1.33;;;;;;;16.01;49.92;99435.88;10430647;28;20632;-90
2022/05/24 09:03:38;;;;;;;3.33;0.70;;;;;;;14.66;50.17;99457.09;10462040;28;20257;-89
2022/05/24 09:09:07;;;;;;;3.10;0.87;;;;;;;14.72;50.42;99461.25;10445718;28;20183;-87
2022/05/24 09:14:13;;;;;;;3.00;0.80;;;;;;;15.04;49.74;99473.03;10429245;28;20184;-84
2022/05/24 09:19:24;;;;;;;2.33;0.85;;;;;;;14.58;49.51;99490.22;10445196;28;20320;-91
2022/05/24 09:24:42;;;;;;;3.33;0.83;;;;;;;15.36;47.81;99474.22;10445393;28;20245;-87
2022/05/24 09:30:06;;;;;;;2.37;1.17;;;;;;;15.42;47.71;99484.00;10429253;28;20622;-89
2022/05/24 09:35:21;;;;;;;6.50;1.27;;;;;;;14.41;47.59;99505.78;10428699;28;20196;-91
2022/05/24 09:40:24;;;;;;;2.33;1.10;;;;;;;15.15;46.03;99510.84;10443919;28;20215;-83
2022/05/24 09:45:36;;;;;;;2.55;1.02;;;;;;;14.87;47.35;99522.66;10461755;28;20196;-93
2022/05/24 09:50:39;;;;;;;2.30;1.03;;;;;;;15.70;45.51;99525.31;10445756;28;20172;-85
2022/05/24 09:55:42;;;;;;;2.67;1.17;;;;;;;16.08;45.23;99513.50;10449238;28;20571;-90
2022/05/24 10:00:54;;;;;;;3.17;0.80;;;;;;;14.58;46.86;99524.25;10480047;28;20208;-86
2022/05/24 10:06:10;;;;;;;2.23;0.83;;;;;;;14.96;47.24;99528.06;10463510;28;20254;-87
2022/05/24 10:11:27;;;;;;;2.63;0.60;;;;;;;15.03;46.11;99533.81;10427798;28;20472;-90
2022/05/24 10:16:43;;;;;;;3.63;0.70;;;;;;;15.14;44.40;99540.44;10434241;28;20199;-91
2022/05/24 10:21:51;;;;;;;0.85;0.40;;;;;;;15.13;44.84;99547.31;10450367;28;20211;-90
2022/05/24 10:27:15;;;;;;;3.73;0.80;;;;;;;15.95;43.77;99540.56;10434471;28;20196;-83
2022/05/24 10:38:28;;;;;;;4.30;0.70;;;;;;;15.20;46.06;99561.63;10453143;28;20589;-82
2022/05/24 10:43:56;;;;;;;2.90;0.57;;;;;;;14.93;45.81;99562.88;10450277;28;20203;-83
2022/05/24 10:49:14;;;;;;;2.30;0.93;;;;;;;16.29;42.49;99549.84;10449610;28;20206;-85
2022/05/24 10:54:36;;;;;;;4.13;0.73;;;;;;;16.25;41.86;99542.50;10466033;28;20231;-83
2022/05/24 10:59:56;;;;;;;1.37;0.67;;;;;;;16.51;42.34;99536.63;10467297;28;20209;-82
2022/05/24 11:05:13;;;;;;;4.33;0.70;;;;;;;15.73;42.81;99545.25;10466616;28;20188;-91
2022/05/24 11:10:35;;;;;;;1.27;0.43;;;;;;;17.34;40.60;99542.38;10448979;28;20183;-83
2022/05/24 11:15:43;;;;;;;3.23;0.70;;;;;;;18.38;38.76;99549.94;10448832;28;20701;-83
2022/05/24 11:20:54;;;;;;;4.53;0.67;;;;;;;18.10;37.26;99545.00;10448714;28;20238;-91
2022/05/24 11:26:11;;;;;;;1.75;0.52;;;;;;;19.02;35.66;99524.97;10447588;28;20196;-85
2022/05/24 11:31:28;;;;;;;0.57;0.40;;;;;;;18.13;36.60;99544.22;10448777;28;20241;-84
2022/05/24 11:36:45;;;;;;;1.40;0.40;;;;;;;17.40;37.03;99552.16;10465451;28;20188;-83
2022/05/24 11:41:47;;;;;;;1.20;0.30;;;;;;;18.44;36.77;99541.81;10464974;28;20465;-89
2022/05/24 11:46:51;;;;;;;1.70;0.40;;;;;;;17.77;37.54;99562.50;10448231;28;20242;-83
2022/05/24 11:51:55;;;;;;;1.80;0.30;;;;;;;16.50;38.47;99572.78;10431477;28;20200;-83
2022/05/24 11:57:06;;;;;;;4.00;0.80;;;;;;;17.13;38.55;99590.69;10447621;28;20224;-82
2022/05/24 12:02:21;;;;;;;2.23;0.43;;;;;;;17.76;37.01;99586.50;10465142;28;20779;-91
2022/05/24 12:12:46;;;;;;;2.83;0.63;;;;;;;17.63;37.68;99595.44;10446242;28;20246;-82
2022/05/24 12:18:15;;;;;;;3.60;0.90;;;;;;;18.09;37.79;99603.28;10463384;28;20253;-84
2022/05/24 12:23:22;;;;;;;1.45;0.43;;;;;;;17.45;37.07;99605.06;10442341;28;20223;-83
2022/05/24 12:28:43;;;;;;;1.87;0.60;;;;;;;17.03;37.54;99605.69;10462670;28;20489;-90
2022/05/24 12:34:00;;;;;;;2.15;0.50;;;;;;;17.82;37.55;99607.72;10446637;28;20192;-85
2022/05/24 12:39:10;;;;;;;1.35;0.73;;;;;;;18.62;35.49;99611.09;10429530;28;20500;-84
2022/05/24 12:44:22;;;;;;;2.85;0.40;;;;;;;17.81;34.01;99617.47;10429915;28;20265;-87
2022/05/24 12:49:27;;;;;;;1.10;0.50;;;;;;;17.86;33.96;99619.91;10430032;28;20523;-83
2022/05/24 12:54:36;;;;;;;1.87;0.30;;;;;;;18.27;33.99;99617.56;10445653;28;20280;-87
2022/05/24 12:59:41;;;;;;;1.90;0.80;;;;;;;18.72;33.67;99618.03;10445724;28;20604;-89
2022/05/24 13:04:44;;;;;;;2.28;0.40;;;;;;;17.69;35.59;99623.53;10429306;28;20196;-83
2022/05/24 13:10:00;;;;;;;0.50;0.30;;;;;;;19.32;33.41;99620.81;10461895;28;20234;-89
2022/05/24 13:15:04;;;;;;;2.43;0.30;;;;;;;18.41;33.87;99639.63;10427906;28;20257;-83
2022/05/24 13:20:09;;;;;;;1.80;0.27;;;;;;;17.64;33.20;99636.13;10462986;28;20246;-90
2022/05/24 13:25:18;;;;;;;0.20;0.20;;;;;;;17.70;38.44;99650.84;10444897;28;20186;-85
2022/05/24 13:36:21;;;;;;;2.37;0.37;;;;;;;17.53;37.13;99653.16;10463759;28;20188;-87
2022/05/24 13:41:35;;;;;;;0.93;0.20;;;;;;;17.90;36.19;99644.38;10451392;28;20207;-88
2022/05/24 13:46:54;;;;;;;0.50;0.30;;;;;;;17.09;37.18;99638.25;10457879;28;20183;-87
2022/05/24 13:52:25;;;;;;;4.67;0.37;;;;;;;16.92;34.95;99643.41;10444299;28;20249;-81
2022/05/24 13:57:30;;;;;;;1.23;0.10;;;;;;;18.21;32.84;99645.69;10461025;28;20278;-90
2022/05/24 14:02:33;;;;;;;2.72;0.15;;;;;;;19.13;32.83;99636.38;10443588;28;20220;-87
2022/05/24 14:07:35;;;;;;;2.20;0.20;;;;;;;18.55;32.05;99648.19;10443066;28;20180;-90
2022/05/24 14:12:37;;;;;;;2.83;0.20;;;;;;;17.98;30.45;99662.31;10442899;28;20234;-90
2022/05/24 14:17:39;;;;;;;0.93;0.20;;;;;;;18.95;30.04;99655.56;10460173;28;20238;-86
2022/05/24 14:22:41;;;;;;;2.17;0.40;;;;;;;18.73;30.91;99666.16;10441366;28;20258;-80
2022/05/24 14:27:43;;;;;;;0.43;0.20;;;;;;;19.01;29.96;99673.91;10442586;28;20192;-81
2022/05/24 14:32:45;;;;;;;1.70;0.33;;;;;;;18.09;33.50;99702.28;10459171;28;20196;-83
2022/05/24 14:37:48;;;;;;;1.65;0.30;;;;;;;17.27;35.65;99714.06;10424077;28;20199;-91
2022/05/24 14:42:50;;;;;;;2.83;0.50;;;;;;;17.66;38.50;99718.38;10459390;28;20216;-81
2022/05/24 14:47:52;;;;;;;3.63;0.45;;;;;;;17.41;38.83;99736.13;10429941;28;20539;-88
2022/05/24 14:52:55;;;;;;;0.40;0.40;;;;;;;18.11;36.80;99731.19;10459380;28;20604;-89
2022/05/24 14:57:57;;;;;;;1.10;0.23;;;;;;;17.92;36.63;99738.06;10442814;28;20227;-81
2022/05/24 15:03:00;;;;;;;0.63;0.38;;;;;;;18.55;35.40;99742.38;10432734;28;20212;-83
2022/05/24 15:19:03;;;;;;;1.77;0.20;;;;;;;18.83;31.28;99748.13;10450638;28;20480;-87
2022/05/24 15:24:08;;;;;;;0.40;0.20;;;;;;;18.00;32.29;99756.84;10466722;28;20226;-92
2022/05/24 15:29:10;;;;;;;0.25;0.20;;;;;;;17.81;33.40;99754.31;10466349;28;20188;-88
2022/05/24 15:34:13;;;;;;;2.33;0.40;;;;;;;18.94;31.81;99754.69;10465549;28;20184;-82
2022/05/24 15:39:15;;;;;;;2.27;0.30;;;;;;;18.67;33.84;99761.97;10447308;28;20188;-82
2022/05/24 15:44:19;;;;;;;1.08;0.30;;;;;;;17.45;33.67;99791.09;10446808;28;20212;-82
2022/05/24 15:49:23;;;;;;;0.73;0.30;;;;;;;17.65;33.86;99773.75;10447161;28;20527;-86
2022/05/24 15:54:26;;;;;;;3.00;0.50;;;;;;;17.24;35.26;99777.50;10463789;28;20215;-82
2022/05/24 15:59:29;;;;;;;0.40;0.30;;;;;;;18.11;33.86;99786.22;10446305;28;20642;-88
2022/05/24 16:10:05;;;;;;;2.57;0.40;;;;;;;17.61;34.23;99803.03;10448398;28;20188;-82
2022/05/24 16:15:08;;;;;;;0.60;0.60;;;;;;;16.56;36.51;99809.34;10447570;28;20234;-82
2022/05/24 16:20:11;;;;;;;1.45;0.40;;;;;;;17.68;35.23;99807.16;10445351;28;20245;-82
2022/05/24 16:25:16;;;;;;;0.63;0.50;;;;;;;16.83;36.61;99824.25;10446639;28;20432;-87
2022/05/24 16:30:18;;;;;;;3.67;1.53;;;;;;;16.66;37.01;99820.03;10447793;28;20531;-88
2022/05/24 16:35:21;;;;;;;2.53;0.50;;;;;;;16.73;36.76;99820.09;10430789;28;20196;-91
2022/05/24 16:40:23;;;;;;;0.90;0.40;;;;;;;16.33;36.84;99815.16;10431463;28;20214;-87
2022/05/24 16:45:27;;;;;;;0.97;0.40;;;;;;;16.71;36.25;99816.81;10464400;28;20222;-81
2022/05/24 16:50:29;;;;;;;0.70;0.30;;;;;;;17.81;34.79;99808.47;10445988;28;20184;-89
2022/05/24 17:00:52;;;;;;;1.10;0.40;;;;;;;18.13;33.50;99805.78;10462906;28;20215;-81
2022/05/24 17:05:54;;;;;;;1.23;0.40;;;;;;;18.66;32.55;99806.81;10444793;28;20192;-92
2022/05/24 17:10:58;;;;;;;0.87;0.20;;;;;;;18.61;32.93;99809.28;10445592;28;20213;-89
2022/05/24 17:16:02;;;;;;;0.30;0.10;;;;;;;17.98;32.81;99807.75;10447726;28;20183;-83
2022/05/24 17:21:04;;;;;;;0.93;0.20;;;;;;;17.76;33.06;99812.50;10462582;28;20211;-86
2022/05/24 17:26:09;;;;;;;1.10;0.20;;;;;;;17.56;34.29;99811.94;10463049;28;20184;-89
2022/05/24 17:31:11;;;;;;;4.93;3.50;;;;;;;17.04;35.96;99823.72;10461406;28;20661;-81
2022/05/24 17:36:13;;;;;;;5.40;2.43;;;;;;;18.22;33.65;99821.34;10460054;28;20577;-80
2022/05/24 17:41:18;;;;;;;1.00;0.40;;;;;;;17.93;34.12;99830.94;10441825;28;20277;-81
2022/05/24 17:46:20;;;;;;;1.90;0.33;;;;;;;17.54;34.08;99836.34;10438022;28;20195;-80
2022/05/24 17:51:43;;;;;;;1.27;0.40;;;;;;;17.48;34.90;99838.72;10444967;28;20242;-80
2022/05/24 17:56:45;;;;;;;0.60;0.23;;;;;;;17.47;34.88;99845.63;10459998;28;20704;-87
2022/05/24 18:01:48;;;;;;;136.52;10.38;;;;;;;17.95;35.82;99848.47;10426937;28;20266;-91
2022/05/24 18:06:52;;;;;;;2.00;0.50;;;;;;;18.17;34.64;99850.22;10461958;28;20191;-92
2022/05/24 18:11:56;;;;;;;19.77;2.80;;;;;;;17.41;36.71;99855.78;10446281;28;20179;-88
2022/05/24 18:16:58;;;;;;;3.90;0.88;;;;;;;17.08;37.89;99855.88;10427462;28;20195;-93
2022/05/24 18:22:02;;;;;;;3.13;0.47;;;;;;;17.95;37.03;99851.31;10461287;28;20253;-93
2022/05/24 18:37:48;;;;;;;12.33;2.00;;;;;;;16.39;40.68;99861.16;10440013;28;20531;-86
2022/05/24 18:43:08;;;;;;;174.47;12.77;;;;;;;17.15;39.01;99859.63;10439492;28;20661;-84
2022/05/24 18:48:11;;;;;;;2.43;0.40;;;;;;;16.73;39.33;99877.03;10449979;28;20196;-83
2022/05/24 18:53:14;;;;;;;0.57;0.20;;;;;;;16.21;37.06;99884.47;10453715;28;20203;-90
2022/05/24 18:58:17;;;;;;;1.48;0.20;;;;;;;16.41;35.59;99887.16;10454396;28;20289;-96
2022/05/24 19:03:19;;;;;;;0.98;0.30;;;;;;;16.00;36.37;99895.53;10420897;28;20513;-94
2022/05/24 19:08:24;;;;;;;0.40;0.10;;;;;;;16.34;35.61;99887.91;10431300;28;20245;-88
2022/05/24 19:13:26;;;;;;;1.60;0.10;;;;;;;16.40;35.29;99908.31;10433855;28;20184;-82
2022/05/24 19:18:29;;;;;;;0.30;0.20;;;;;;;16.20;35.69;99922.63;10448917;28;20192;-84
2022/05/24 19:23:32;;;;;;;0.63;0.38;;;;;;;16.73;35.68;99924.59;10431883;28;20212;-84
2022/05/24 19:28:34;;;;;;;1.10;0.30;;;;;;;16.99;35.78;99932.25;10447604;28;20200;-83
2022/05/24 19:33:36;;;;;;;0.87;0.30;;;;;;;16.32;36.95;99943.53;10414778;28;20188;-83
2022/05/24 19:41:40;;;;;;;4.03;0.30;;;;;;;16.46;36.23;99947.41;10443481;28;20616;-83
2022/05/24 19:44:00;;;;;;;0.83;0.30;;;;;;;16.39;37.22;99950.16;10437245;28;20234;-83
2022/05/24 19:49:02;;;;;;;0.77;0.20;;;;;;;16.26;37.39;99959.31;10444286;28;20203;-82
2022/05/24 19:54:05;;;;;;;1.33;0.40;;;;;;;15.36;38.68;99968.31;10442531;28;20284;-82
2022/05/24 19:59:07;;;;;;;1.37;0.50;;;;;;;16.58;36.70;99969.09;10475803;28;20225;-83
2022/05/24 20:04:10;;;;;;;2.97;0.70;;;;;;;16.29;37.02;99967.03;10457724;28;20668;-83
2022/05/24 20:09:12;;;;;;;0.77;0.40;;;;;;;16.41;37.58;99979.00;10427789;28;20656;-83
2022/05/24 20:14:14;;;;;;;4.17;0.40;;;;;;;16.53;37.54;99986.53;10457724;28;20195;-82
2022/05/24 20:19:18;;;;;;;0.82;0.30;;;;;;;16.23;38.65;99995.00;10444002;28;20203;-82
2022/05/24 20:24:20;;;;;;;1.17;0.40;;;;;;;16.74;37.31;100005.91;10425908;28;20227;-81
2022/05/24 20:29:23;;;;;;;1.07;0.33;;;;;;;16.89;37.20;100005.72;10460668;28;20199;-93
2022/05/24 20:34:25;;;;;;;0.63;0.40;;;;;;;17.15;37.25;100012.56;10434997;28;20496;-95
2022/05/24 20:39:27;;;;;;;0.90;0.30;;;;;;;17.05;37.62;100016.94;10474055;28;20192;-82
2022/05/24 20:44:32;;;;;;;1.27;0.50;;;;;;;16.09;38.71;100032.53;10467915;28;20219;-81
2022/05/24 20:49:34;;;;;;;0.33;0.30;;;;;;;16.44;38.57;100028.63;10437828;28;20204;-89
2022/05/24 20:54:37;;;;;;;1.53;0.53;;;;;;;15.97;40.02;100032.72;10447979;28;20228;-82
2022/05/24 20:59:39;;;;;;;1.87;0.47;;;;;;;15.72;41.54;100035.13;10438281;28;20264;-87
2022/05/24 21:04:52;;;;;;;1.77;0.60;;;;;;;16.06;40.06;100036.13;10463468;28;20227;-82
2022/05/24 21:09:54;;;;;;;3.27;0.57;;;;;;;15.91;39.92;100034.22;10466055;28;20587;-81
2022/05/24 21:14:57;;;;;;;2.77;0.60;;;;;;;15.91;39.61;100041.94;10459333;28;20204;-84
2022/05/24 21:20:00;;;;;;;1.13;0.50;;;;;;;16.44;39.34;100045.72;10451288;28;20250;-89
2022/05/24 21:30:25;;;;;;;0.87;0.60;;;;;;;16.62;38.65;100058.19;10463564;28;20196;-82
2022/05/24 21:35:29;;;;;;;0.40;0.40;;;;;;;16.32;39.06;100058.13;10454455;28;20192;-91
2022/05/24 21:40:31;;;;;;;0.47;0.40;;;;;;;15.39;40.20;100064.06;10453939;28;20204;-91
2022/05/24 21:45:35;;;;;;;1.97;0.50;;;;;;;15.44;40.92;100065.81;10465094;28;20246;-81
2022/05/24 21:50:38;;;;;;;1.17;0.37;;;;;;;15.74;40.29;100071.69;10498183;28;20183;-83
2022/05/24 21:55:42;;;;;;;1.20;0.70;;;;;;;15.39;41.03;100074.63;10480568;28;20277;-83
2022/05/24 22:00:56;;;;;;;2.80;0.63;;;;;;;15.33;40.71;100087.50;10504863;28;20583;-82
2022/05/24 22:06:01;;;;;;;3.90;0.50;;;;;;;16.19;39.75;100091.59;10483180;28;20855;-83
2022/05/24 22:11:27;;;;;;;0.70;0.30;;;;;;;15.43;40.25;100090.53;10476427;28;20261;-82
2022/05/24 22:16:30;;;;;;;2.17;0.40;;;;;;;15.97;39.43;100095.28;10477049;28;20199;-82
2022/05/24 22:21:32;;;;;;;2.77;0.70;;;;;;;15.36;40.00;100090.41;10484516;28;20191;-94
2022/05/24 22:26:37;;;;;;;1.67;0.37;;;;;;;15.56;39.23;100102.59;10506132;28;20203;-88
2022/05/24 22:31:39;;;;;;;2.30;0.50;;;;;;;15.16;40.24;100111.47;10476551;28;20245;-84
2022/05/24 22:36:42;;;;;;;2.17;0.70;;;;;;;15.59;39.58;100106.72;10505829;28;20179;-93
2022/05/24 22:41:44;;;;;;;0.50;0.33;;;;;;;15.65;39.11;100119.41;10486188;28;20191;-81
2022/05/24 22:46:50;;;;;;;1.67;0.30;;;;;;;15.69;38.98;100123.16;10470079;28;20241;-84
2022/05/24 22:51:59;;;;;;;0.63;0.53;;;;;;;14.89;40.50;100132.34;10506721;28;20203;-88
2022/05/24 22:57:10;;;;;;;0.97;0.30;;;;;;;14.92;41.11;100128.75;10489031;28;20284;-84
2022/05/24 23:02:13;;;;;;;1.13;0.30;;;;;;;14.90;40.67;100131.13;10502369;28;20264;-85
2022/05/24 23:07:17;;;;;;;1.10;0.30;;;;;;;15.63;39.94;100130.34;10502451;28;20580;-84
2022/05/24 23:12:20;;;;;;;0.70;0.40;;;;;;;15.59;38.98;100135.13;10463955;28;20214;-82
2022/05/24 23:17:22;;;;;;;2.03;0.37;;;;;;;14.87;40.50;100134.72;10482448;28;20534;-82
2022/05/24 23:22:42;;;;;;;1.53;0.20;;;;;;;13.87;43.69;100145.47;10524551;22;20231;-81
2022/05/24 23:27:44;;;;;;;0.73;0.20;;;;;;;14.14;42.20;100138.13;10465005;28;20662;-80
2022/05/24 23:32:53;;;;;;;0.83;0.30;;;;;;;14.28;42.08;100144.19;10451221;28;20188;-80
2022/05/24 23:37:57;;;;;;;3.23;0.33;;;;;;;13.82;43.30;100140.88;10462457;23;20699;-85
2022/05/24 23:43:01;;;;;;;1.33;0.30;;;;;;;14.16;42.66;100135.75;10469086;28;20207;-86
2022/05/24 23:48:04;;;;;;;1.10;0.30;;;;;;;14.52;42.14;100143.16;10467638;28;20192;-86
2022/05/24 23:53:06;;;;;;;0.37;0.30;;;;;;;14.64;41.98;100143.88;10450806;28;20207;-96
2022/05/24 23:58:08;;;;;;;1.10;0.60;;;;;;;14.41;42.52;100142.91;10472363;28;20192;-95
